createdAt,value
2023-04-13T00:01:45.974Z,0
2023-04-13T00:05:11.101Z,0
2023-04-13T00:08:36.242Z,0
2023-04-13T00:12:01.433Z,0
2023-04-13T00:15:26.599Z,0
2023-04-13T00:18:51.778Z,0
2023-04-13T00:22:16.950Z,0
2023-04-13T00:25:42.146Z,0
2023-04-13T00:29:07.340Z,0
2023-04-13T00:32:32.490Z,0
2023-04-13T00:35:57.666Z,0
2023-04-13T00:39:22.838Z,0
2023-04-13T00:42:48.018Z,0
2023-04-13T00:46:13.209Z,0
2023-04-13T00:49:38.337Z,0
2023-04-13T00:53:03.501Z,0
2023-04-13T00:56:28.678Z,0
2023-04-13T00:59:53.867Z,0
2023-04-13T01:03:19.176Z,0
2023-04-13T01:06:44.225Z,0
2023-04-13T01:10:09.387Z,0
2023-04-13T01:13:34.581Z,0
2023-04-13T01:16:59.746Z,0
2023-04-13T01:20:24.953Z,0
2023-04-13T01:23:50.112Z,0
2023-04-13T01:27:15.286Z,0
2023-04-13T01:30:40.512Z,0
2023-04-13T01:34:05.655Z,0
2023-04-13T01:37:30.877Z,0
2023-04-13T01:40:56.003Z,0
2023-04-13T01:44:21.203Z,0
2023-04-13T01:47:46.382Z,0
2023-04-13T01:51:11.572Z,0
2023-04-13T01:54:36.769Z,0
2023-04-13T01:58:01.938Z,0
2023-04-13T02:01:27.117Z,0
2023-04-13T02:04:52.278Z,0
2023-04-13T02:08:17.474Z,0
2023-04-13T02:11:42.691Z,0
2023-04-13T02:15:07.849Z,0
2023-04-13T02:18:33.034Z,0
2023-04-13T02:21:58.199Z,0
2023-04-13T02:25:23.443Z,0
2023-04-13T02:28:48.650Z,0
2023-04-13T02:32:14.050Z,0
2023-04-13T02:35:39.078Z,0
2023-04-13T02:39:04.194Z,0
2023-04-13T02:42:29.360Z,0
2023-04-13T02:45:54.574Z,0
2023-04-13T02:49:19.718Z,0
2023-04-13T02:52:44.890Z,0
2023-04-13T02:56:10.091Z,0
2023-04-13T02:59:35.270Z,0
2023-04-13T03:03:00.521Z,0
2023-04-13T03:06:25.651Z,0
2023-04-13T03:09:50.801Z,0
2023-04-13T03:13:15.981Z,0
2023-04-13T03:16:41.198Z,0
2023-04-13T03:20:06.367Z,0
2023-04-13T03:23:31.528Z,0
2023-04-13T03:26:56.689Z,0
2023-04-13T03:30:21.882Z,0
2023-04-13T03:33:47.064Z,0
2023-04-13T03:37:12.278Z,0
2023-04-13T03:40:37.434Z,0
2023-04-13T03:44:02.603Z,0
2023-04-13T03:47:27.795Z,0
2023-04-13T03:50:52.966Z,0
2023-04-13T03:54:18.164Z,0
2023-04-13T03:57:43.302Z,0
2023-04-13T04:01:08.483Z,0
2023-04-13T04:04:33.653Z,0
2023-04-13T04:07:58.822Z,0
2023-04-13T04:11:24.027Z,0
2023-04-13T04:14:49.154Z,0
2023-04-13T04:18:14.358Z,0
2023-04-13T04:21:39.502Z,0
2023-04-13T04:25:04.665Z,0
2023-04-13T04:28:29.882Z,0
2023-04-13T04:31:55.078Z,0
2023-04-13T04:35:20.244Z,0
2023-04-13T04:38:45.418Z,0
2023-04-13T04:42:10.594Z,0
2023-04-13T04:45:35.898Z,0
2023-04-13T04:49:01.150Z,0
2023-04-13T04:52:26.277Z,0
2023-04-13T04:55:51.463Z,0
2023-04-13T04:59:16.597Z,0
2023-04-13T05:02:41.867Z,0
2023-04-13T05:06:06.904Z,0
2023-04-13T05:09:32.070Z,0
2023-04-13T05:12:57.255Z,0
2023-04-13T05:16:22.463Z,0
2023-04-13T05:19:47.652Z,0
2023-04-13T05:23:12.788Z,0
2023-04-13T05:26:37.962Z,0
2023-04-13T05:30:03.141Z,0
2023-04-13T05:33:28.313Z,0
2023-04-13T05:36:53.498Z,0
2023-04-13T05:40:18.647Z,6
2023-04-13T05:43:43.820Z,6
2023-04-13T05:47:09.606Z,6
2023-04-13T05:50:36.987Z,6
2023-04-13T05:54:02.740Z,6
2023-04-13T05:57:27.809Z,6
2023-04-13T06:00:53.023Z,6
2023-04-13T06:04:18.265Z,6
2023-04-13T06:07:43.379Z,6
2023-04-13T06:11:08.599Z,6
2023-04-13T06:14:33.792Z,6
2023-04-13T06:17:58.970Z,6
2023-04-13T06:21:24.174Z,6
2023-04-13T06:24:49.359Z,6
2023-04-13T06:28:14.564Z,6
2023-04-13T06:31:39.721Z,6
2023-04-13T06:35:04.897Z,11
2023-04-13T06:38:30.042Z,17
2023-04-13T06:41:55.221Z,28
2023-04-13T06:45:20.578Z,17
2023-04-13T06:48:45.607Z,11
2023-04-13T06:52:10.786Z,17
2023-04-13T06:55:35.969Z,11
2023-04-13T06:59:02.474Z,17
2023-04-13T07:02:26.577Z,23
2023-04-13T07:05:51.513Z,28
2023-04-13T07:09:16.781Z,28
2023-04-13T07:12:41.883Z,34
2023-04-13T07:16:07.086Z,45
2023-04-13T07:19:32.286Z,45
2023-04-13T07:22:57.419Z,28
2023-04-13T07:26:22.641Z,34
2023-04-13T07:29:47.813Z,51
2023-04-13T07:33:13.304Z,34
2023-04-13T07:36:38.506Z,39
2023-04-13T07:40:03.676Z,45
2023-04-13T07:43:28.867Z,23
2023-04-13T07:46:54.076Z,28
2023-04-13T07:50:19.255Z,39
2023-04-13T07:53:44.477Z,34
2023-04-13T07:57:09.671Z,51
2023-04-13T08:00:34.875Z,34
2023-04-13T08:04:00.181Z,23
2023-04-13T08:07:25.304Z,23
2023-04-13T08:10:50.501Z,28
2023-04-13T08:14:15.648Z,34
2023-04-13T08:17:40.830Z,51
2023-04-13T08:21:06.001Z,45
2023-04-13T08:24:31.198Z,39
2023-04-13T08:27:56.994Z,45
2023-04-13T08:31:22.165Z,28
2023-04-13T08:34:47.299Z,34
2023-04-13T08:38:12.495Z,28
2023-04-13T08:41:38.558Z,28
2023-04-13T08:45:02.850Z,28
2023-04-13T08:48:28.207Z,28
2023-04-13T08:51:53.159Z,45
2023-04-13T08:55:18.433Z,34
2023-04-13T08:58:43.579Z,28
2023-04-13T09:02:08.895Z,23
2023-04-13T09:05:33.912Z,28
2023-04-13T09:08:59.261Z,23
2023-04-13T09:12:24.258Z,23
2023-04-13T09:15:49.446Z,28
2023-04-13T09:19:14.616Z,17
2023-04-13T09:22:39.765Z,11
2023-04-13T09:26:04.919Z,11
2023-04-13T09:29:30.153Z,28
2023-04-13T09:32:55.410Z,23
2023-04-13T09:36:20.665Z,23
2023-04-13T09:39:45.837Z,34
2023-04-13T09:43:11.027Z,28
2023-04-13T09:46:36.271Z,23
2023-04-13T09:50:01.454Z,23
2023-04-13T09:53:26.888Z,17
2023-04-13T09:56:51.951Z,23
2023-04-13T10:00:18.957Z,23
2023-04-13T10:03:42.423Z,34
2023-04-13T10:07:07.577Z,23
2023-04-13T10:10:32.817Z,23
2023-04-13T10:13:58.184Z,23
2023-04-13T10:17:23.320Z,17
2023-04-13T10:20:48.403Z,28
2023-04-13T10:24:13.624Z,28
2023-04-13T10:27:38.842Z,23
2023-04-13T10:31:04.036Z,28
2023-04-13T10:34:29.274Z,28
2023-04-13T10:37:54.486Z,23
2023-04-13T10:41:19.673Z,23
2023-04-13T10:44:44.919Z,23
2023-04-13T10:48:10.163Z,28
2023-04-13T10:51:35.378Z,28
2023-04-13T10:55:00.586Z,23
2023-04-13T10:58:25.813Z,28
2023-04-13T11:01:51.071Z,45
2023-04-13T11:05:16.242Z,39
2023-04-13T11:08:41.592Z,51
2023-04-13T11:12:06.733Z,62
2023-04-13T11:15:31.994Z,84
2023-04-13T11:18:57.424Z,113
2023-04-13T11:22:22.447Z,51
2023-04-13T11:25:47.676Z,45
2023-04-13T11:29:12.908Z,39
2023-04-13T11:32:38.183Z,34
2023-04-13T11:36:03.444Z,28
2023-04-13T11:39:28.639Z,34
2023-04-13T11:42:53.869Z,45
2023-04-13T11:46:19.136Z,23
2023-04-13T11:49:44.401Z,34
2023-04-13T11:53:10.128Z,45
2023-04-13T11:56:34.911Z,39
2023-04-13T12:00:00.191Z,62
2023-04-13T12:03:35.112Z,51
2023-04-13T12:06:51.129Z,113
2023-04-13T12:10:23.092Z,45
2023-04-13T12:13:46.806Z,34
2023-04-13T12:17:18.241Z,39
2023-04-13T12:20:31.529Z,90
2023-04-13T12:23:56.728Z,79
2023-04-13T12:27:22.077Z,51
2023-04-13T12:30:47.191Z,51
2023-04-13T12:34:12.434Z,90
2023-04-13T12:37:37.734Z,39
2023-04-13T12:41:03.055Z,45
2023-04-13T12:44:28.365Z,45
2023-04-13T12:47:53.684Z,51
2023-04-13T12:51:18.909Z,51
2023-04-13T12:54:44.167Z,45
2023-04-13T12:58:09.569Z,51
2023-04-13T13:01:34.858Z,56
2023-04-13T13:05:00.193Z,39
2023-04-13T13:08:25.384Z,34
2023-04-13T13:11:50.691Z,39
2023-04-13T13:15:15.945Z,39
2023-04-13T13:18:50.199Z,51
2023-04-13T13:22:07.036Z,62
2023-04-13T13:25:33.649Z,45
2023-04-13T13:28:57.869Z,45
2023-04-13T13:32:23.052Z,39
2023-04-13T13:35:48.316Z,28
2023-04-13T13:39:13.556Z,39
2023-04-13T13:42:50.473Z,34
2023-04-13T13:46:04.140Z,23
2023-04-13T13:49:29.400Z,28
2023-04-13T13:53:03.622Z,34
2023-04-13T13:56:19.954Z,45
2023-04-13T13:59:46.011Z,39
2023-04-13T14:03:10.745Z,34
2023-04-13T14:06:35.740Z,39
2023-04-13T14:10:01.053Z,39
2023-04-13T14:13:26.276Z,39
2023-04-13T14:16:51.556Z,39
2023-04-13T14:20:16.871Z,39
2023-04-13T14:23:42.192Z,39
2023-04-13T14:27:07.467Z,39
2023-04-13T14:30:33.167Z,39
2023-04-13T14:33:58.460Z,39
2023-04-13T14:37:23.747Z,34
2023-04-13T14:40:48.969Z,34
2023-04-13T14:44:14.246Z,34
2023-04-13T14:47:39.446Z,28
2023-04-13T14:51:04.694Z,28
2023-04-13T14:54:30.070Z,34
2023-04-13T14:57:55.357Z,28
2023-04-13T15:01:20.687Z,28
2023-04-13T15:04:45.962Z,23
2023-04-13T15:41:00.032Z,11
2023-04-13T15:44:25.435Z,28
2023-04-13T15:47:50.841Z,23
2023-04-13T15:51:16.204Z,23
2023-04-13T15:54:41.600Z,17
2023-04-13T15:58:06.960Z,17
2023-04-13T16:01:32.380Z,17
2023-04-13T16:04:57.764Z,17
2023-04-13T16:08:23.116Z,17
2023-04-13T16:11:48.492Z,17
2023-04-13T16:15:13.927Z,17
2023-04-13T16:18:39.302Z,17
2023-04-13T16:22:04.675Z,17
2023-04-13T16:25:30.053Z,17
2023-04-13T16:28:55.442Z,17
2023-04-13T16:32:20.861Z,11
2023-04-13T16:35:46.216Z,11
2023-04-13T16:39:13.112Z,11
2023-04-13T16:42:36.954Z,11
2023-04-13T16:46:02.354Z,11
2023-04-13T16:49:27.760Z,11
2023-04-13T16:52:53.128Z,11
2023-04-13T16:56:18.631Z,6
2023-04-13T16:59:44.003Z,6
2023-04-13T17:03:09.439Z,0
2023-04-13T17:06:34.772Z,0
2023-04-13T17:10:00.157Z,0
2023-04-13T17:13:25.510Z,0
2023-04-13T17:16:50.986Z,0
2023-04-13T17:20:16.985Z,0
2023-04-13T17:23:41.709Z,0
2023-04-13T17:27:07.055Z,0
2023-04-13T17:30:32.460Z,0
2023-04-13T17:33:57.838Z,0
2023-04-13T17:37:23.191Z,0
2023-04-13T17:40:48.584Z,0
2023-04-13T17:44:13.926Z,0
2023-04-13T17:47:39.322Z,0
2023-04-13T17:51:04.690Z,0
2023-04-13T17:54:30.065Z,0
2023-04-13T17:57:55.436Z,0
2023-04-13T18:01:20.765Z,0
2023-04-13T18:04:46.076Z,0
2023-04-13T18:08:11.419Z,0
2023-04-13T18:11:36.790Z,0
2023-04-13T18:15:02.170Z,0
2023-04-13T18:18:27.528Z,0
2023-04-13T18:21:52.864Z,0
2023-04-13T18:25:18.226Z,0
2023-04-13T18:28:43.561Z,0
2023-04-13T18:32:08.924Z,0
2023-04-13T18:35:34.252Z,0
2023-04-13T18:38:59.630Z,0
2023-04-13T18:42:24.965Z,0
2023-04-13T18:45:50.328Z,0
2023-04-13T18:49:15.741Z,0
2023-04-13T18:52:41.075Z,0
2023-04-13T18:56:06.416Z,0
2023-04-13T18:59:32.694Z,0
2023-04-13T19:02:58.318Z,0
2023-04-13T19:06:23.450Z,0
2023-04-13T19:09:48.770Z,0
2023-04-13T19:13:14.110Z,0
2023-04-13T19:16:39.462Z,0
2023-04-13T19:20:04.769Z,0
2023-04-13T19:23:30.157Z,0
2023-04-13T19:26:55.485Z,0
2023-04-13T19:30:20.829Z,0
2023-04-13T19:33:46.226Z,0
2023-04-13T19:37:11.532Z,0
2023-04-13T19:40:36.912Z,0
2023-04-13T19:44:02.369Z,0
2023-04-13T19:47:27.697Z,0
2023-04-13T19:50:53.086Z,0
2023-04-13T19:54:18.457Z,0
2023-04-13T19:57:43.870Z,0
2023-04-13T20:01:09.238Z,0
2023-04-13T20:04:34.666Z,0
2023-04-13T20:07:59.944Z,0
2023-04-13T20:11:25.317Z,0
2023-04-13T20:14:50.718Z,0
2023-04-13T20:18:16.098Z,0
2023-04-13T20:21:41.486Z,0
2023-04-13T20:25:06.840Z,0
2023-04-13T20:28:32.192Z,0
2023-04-13T20:31:57.648Z,0
2023-04-13T20:35:22.945Z,0
2023-04-13T20:38:48.401Z,0
2023-04-13T20:42:13.748Z,0
2023-04-13T20:45:39.132Z,0
2023-04-13T20:49:04.566Z,0
2023-04-13T20:52:29.885Z,0
2023-04-13T20:55:55.249Z,0
2023-04-13T20:59:20.586Z,0
2023-04-13T21:02:46.012Z,0
2023-04-13T21:06:11.305Z,0
2023-04-13T21:09:36.682Z,0
2023-04-13T21:13:02.024Z,0
2023-04-13T21:16:27.423Z,0
2023-04-13T21:19:52.772Z,0
2023-04-13T21:23:18.136Z,0
2023-04-13T21:26:43.477Z,0
2023-04-13T21:30:08.827Z,0
2023-04-13T21:33:34.145Z,0
2023-04-13T21:36:59.494Z,0
2023-04-13T21:40:24.911Z,0
2023-04-13T21:43:50.265Z,0
2023-04-13T21:47:15.590Z,0
2023-04-13T21:50:40.971Z,0
2023-04-13T21:54:06.303Z,0
2023-04-13T21:57:31.694Z,0
2023-04-13T22:00:57.066Z,0
2023-04-13T22:04:22.450Z,0
2023-04-13T22:07:47.736Z,0
2023-04-13T22:11:13.044Z,0
2023-04-13T22:14:38.401Z,0
2023-04-13T22:18:03.755Z,0
2023-04-13T22:21:29.031Z,0
2023-04-13T22:24:54.358Z,0
2023-04-13T22:28:19.686Z,0
2023-04-13T22:31:45.118Z,0
2023-04-13T22:35:10.385Z,0
2023-04-13T22:38:35.641Z,0
2023-04-13T22:42:01.000Z,0
2023-04-13T22:45:26.370Z,0
2023-04-13T22:48:51.704Z,0
2023-04-13T22:52:16.968Z,0
2023-04-13T22:55:42.287Z,0
2023-04-13T22:59:07.569Z,0
2023-04-13T23:02:32.975Z,0
2023-04-13T23:05:58.225Z,0
2023-04-13T23:09:23.521Z,0
2023-04-13T23:12:48.812Z,0
2023-04-13T23:16:14.161Z,0
2023-04-13T23:19:39.445Z,0
2023-04-13T23:23:04.765Z,0
2023-04-13T23:26:30.108Z,0
2023-04-13T23:29:55.393Z,0
2023-04-13T23:33:20.734Z,0
2023-04-13T23:36:46.079Z,0
2023-04-13T23:40:11.424Z,0
2023-04-13T23:43:36.717Z,0
2023-04-13T23:47:02.048Z,0
2023-04-13T23:50:27.350Z,0
2023-04-13T23:53:52.757Z,0
2023-04-13T23:57:18.093Z,0
